createdAt,value
2022-11-12T00:00:59.520Z,9.15
2022-11-12T00:02:01.288Z,8.75
2022-11-12T00:03:03.787Z,4.93
2022-11-12T00:04:07.018Z,6.35
2022-11-12T00:05:09.473Z,11.02
2022-11-12T00:06:11.385Z,6.85
2022-11-12T00:07:13.299Z,7.72
2022-11-12T00:08:15.501Z,9.45
2022-11-12T00:09:17.232Z,6.15
2022-11-12T00:10:19.503Z,8.60
2022-11-12T00:11:21.390Z,9.05
2022-11-12T00:12:23.247Z,7.75
2022-11-12T00:13:25.121Z,7.70
2022-11-12T00:14:26.881Z,7.47
2022-11-12T00:15:28.924Z,7.53
2022-11-12T00:16:30.796Z,8.15
2022-11-12T00:17:32.502Z,8.80
2022-11-12T00:18:34.376Z,6.15
2022-11-12T00:19:36.093Z,6.55
2022-11-12T00:20:38.287Z,6.80
2022-11-12T00:21:40.024Z,8.10
2022-11-12T00:22:42.159Z,7.43
2022-11-12T00:23:44.051Z,6.68
2022-11-12T00:24:45.914Z,6.45
2022-11-12T00:25:47.678Z,5.18
2022-11-12T00:26:49.416Z,4.07
2022-11-12T00:27:51.301Z,5.65
2022-11-12T00:28:53.034Z,7.28
2022-11-12T00:29:54.803Z,7.40
2022-11-12T00:30:56.592Z,5.32
2022-11-12T00:31:58.391Z,6.53
2022-11-12T00:33:04.918Z,5.10
2022-11-12T00:34:06.934Z,3.60
2022-11-12T00:35:13.408Z,6.85
2022-11-12T00:36:15.645Z,9.13
2022-11-12T00:37:18.787Z,4.57
2022-11-12T00:38:20.646Z,6.20
2022-11-12T00:39:22.744Z,6.38
2022-11-12T00:40:25.180Z,8.30
2022-11-12T00:41:27.180Z,6.40
2022-11-12T00:42:29.275Z,5.82
2022-11-12T00:43:31.520Z,7.53
2022-11-12T00:44:33.419Z,4.57
2022-11-12T00:45:35.531Z,6.13
2022-11-12T00:46:37.307Z,8.77
2022-11-12T00:47:39.051Z,9.10
2022-11-12T00:48:40.787Z,7.38
2022-11-12T00:49:42.745Z,6.88
2022-11-12T00:50:44.578Z,9.82
2022-11-12T00:51:46.490Z,6.57
2022-11-12T00:52:48.647Z,7.28
2022-11-12T00:53:51.021Z,5.78
2022-11-12T00:54:52.891Z,8.88
2022-11-12T00:56:04.001Z,9.77
2022-11-12T00:58:07.516Z,5.47
2022-11-12T00:59:09.475Z,7.68
2022-11-12T01:00:16.374Z,7.82
2022-11-12T01:01:18.808Z,10.65
2022-11-12T01:02:22.341Z,9.98
2022-11-12T01:03:24.649Z,7.53
2022-11-12T01:04:26.651Z,4.90
2022-11-12T01:05:28.406Z,12.30
2022-11-12T01:06:30.346Z,12.10
2022-11-12T01:07:32.267Z,9.07
2022-11-12T01:08:34.685Z,11.15
2022-11-12T01:09:36.707Z,9.35
2022-11-12T01:10:38.671Z,9.68
2022-11-12T01:11:41.410Z,7.50
2022-11-12T01:12:43.167Z,10.00
2022-11-12T01:13:47.496Z,10.43
2022-11-12T01:14:49.633Z,10.02
2022-11-12T01:15:51.521Z,10.82
2022-11-12T01:16:53.541Z,10.63
2022-11-12T01:17:55.420Z,13.25
2022-11-12T01:19:00.340Z,8.30
2022-11-12T01:20:02.083Z,9.50
2022-11-12T01:21:06.718Z,10.60
2022-11-12T01:22:08.452Z,11.73
2022-11-12T01:23:10.351Z,14.27
2022-11-12T01:24:12.487Z,11.88
2022-11-12T01:25:14.665Z,13.20
2022-11-12T01:26:19.042Z,11.30
2022-11-12T01:27:20.789Z,13.15
2022-11-12T01:28:23.056Z,13.80
2022-11-12T01:29:25.115Z,16.05
2022-11-12T01:30:27.091Z,20.80
2022-11-12T01:31:34.475Z,11.77
2022-11-12T01:32:37.611Z,8.85
2022-11-12T01:33:40.424Z,14.65
2022-11-12T01:34:42.508Z,11.75
2022-11-12T01:35:44.455Z,10.40
2022-11-12T01:36:46.472Z,10.00
2022-11-12T01:37:48.253Z,10.45
2022-11-12T01:38:50.620Z,15.63
2022-11-12T01:39:52.687Z,11.15
2022-11-12T01:40:54.698Z,13.73
2022-11-12T01:41:57.470Z,16.35
2022-11-12T01:42:59.571Z,16.60
2022-11-12T01:44:11.506Z,15.93
2022-11-12T01:45:18.010Z,13.48
2022-11-12T01:46:25.954Z,12.73
2022-11-12T01:47:31.018Z,14.00
2022-11-12T01:48:48.738Z,12.55
2022-11-12T01:49:57.871Z,11.15
2022-11-12T01:51:00.480Z,13.20
2022-11-12T01:52:22.485Z,11.80
2022-11-12T01:53:28.292Z,12.95
2022-11-12T01:54:31.489Z,11.43
2022-11-12T01:55:37.446Z,13.15
2022-11-12T01:56:42.485Z,11.73
2022-11-12T01:58:11.759Z,10.70
2022-11-12T01:59:22.256Z,12.25
2022-11-12T02:00:24.038Z,16.30
2022-11-12T02:01:26.608Z,14.38
2022-11-12T02:02:29.080Z,13.25
2022-11-12T02:03:32.141Z,16.75
2022-11-12T02:04:36.383Z,12.57
2022-11-12T02:05:39.641Z,14.57
2022-11-12T02:06:43.062Z,13.05
2022-11-12T02:07:47.724Z,14.45
2022-11-12T02:08:50.623Z,15.05
2022-11-12T02:09:53.739Z,13.57
2022-11-12T02:10:55.578Z,16.52
2022-11-12T02:11:58.473Z,8.27
2022-11-12T02:13:19.111Z,12.30
2022-11-12T02:14:21.728Z,12.43
2022-11-12T02:15:23.616Z,13.25
2022-11-12T02:16:30.153Z,16.83
2022-11-12T02:17:32.062Z,16.88
2022-11-12T02:18:33.972Z,16.45
2022-11-12T02:19:38.014Z,13.52
2022-11-12T02:20:39.914Z,14.95
2022-11-12T02:21:42.203Z,16.73
2022-11-12T02:22:44.553Z,16.17
2022-11-12T02:23:46.455Z,11.35
2022-11-12T02:24:48.350Z,11.50
2022-11-12T02:25:50.443Z,14.50
2022-11-12T02:26:55.227Z,16.98
2022-11-12T02:27:59.009Z,16.23
2022-11-12T02:29:01.359Z,18.40
2022-11-12T02:30:03.367Z,21.25
2022-11-12T02:31:05.535Z,18.13
2022-11-12T02:33:10.174Z,15.40
2022-11-12T02:34:12.099Z,16.70
2022-11-12T02:35:14.059Z,12.70
2022-11-12T02:36:16.008Z,10.90
2022-11-12T02:37:17.907Z,11.30
2022-11-12T02:38:19.867Z,18.75
2022-11-12T02:39:21.779Z,15.25
2022-11-12T02:40:24.690Z,13.85
2022-11-12T02:41:26.750Z,11.43
2022-11-12T02:42:28.564Z,16.17
2022-11-12T02:43:30.478Z,15.45
2022-11-12T02:44:32.684Z,13.23
2022-11-12T02:45:34.610Z,16.52
2022-11-12T02:46:36.488Z,19.33
2022-11-12T02:47:38.327Z,11.90
2022-11-12T02:48:40.281Z,14.50
2022-11-12T02:49:42.409Z,14.25
2022-11-12T02:50:44.558Z,12.02
2022-11-12T02:51:46.489Z,14.23
2022-11-12T02:52:48.517Z,9.60
2022-11-12T02:53:50.430Z,13.18
2022-11-12T02:54:52.344Z,17.73
2022-11-12T02:55:54.204Z,12.38
2022-11-12T02:56:56.315Z,14.95
2022-11-12T02:57:59.935Z,15.60
2022-11-12T02:59:01.987Z,12.95
2022-11-12T03:00:09.604Z,12.52
2022-11-12T03:01:11.654Z,12.75
2022-11-12T03:02:13.635Z,12.38
2022-11-12T03:03:15.752Z,15.57
2022-11-12T03:04:17.720Z,13.95
2022-11-12T03:05:19.599Z,16.88
2022-11-12T03:06:21.502Z,14.15
2022-11-12T03:07:23.473Z,20.83
2022-11-12T03:08:26.049Z,14.48
2022-11-12T03:09:28.226Z,16.65
2022-11-12T03:10:30.568Z,13.63
2022-11-12T03:11:32.700Z,10.82
2022-11-12T03:12:34.658Z,11.40
2022-11-12T03:13:37.793Z,14.18
2022-11-12T03:14:39.919Z,14.20
2022-11-12T03:15:41.905Z,18.75
2022-11-12T03:16:43.817Z,15.48
2022-11-12T03:17:45.763Z,17.38
2022-11-12T03:18:47.479Z,12.35
2022-11-12T03:19:49.377Z,16.65
2022-11-12T03:20:54.267Z,14.35
2022-11-12T03:21:56.351Z,14.93
2022-11-12T03:23:03.183Z,15.48
2022-11-12T03:24:05.548Z,14.95
2022-11-12T03:25:09.375Z,15.02
2022-11-12T03:26:11.308Z,16.88
2022-11-12T03:27:13.496Z,16.85
2022-11-12T03:28:17.218Z,12.80
2022-11-12T03:29:19.237Z,21.85
2022-11-12T03:30:22.417Z,12.00
2022-11-12T03:31:24.664Z,11.93
2022-11-12T03:32:26.736Z,17.23
2022-11-12T03:33:29.055Z,11.32
2022-11-12T03:34:30.920Z,13.23
2022-11-12T03:35:33.852Z,15.30
2022-11-12T03:36:35.749Z,17.00
2022-11-12T03:37:37.563Z,14.02
2022-11-12T03:38:39.489Z,14.25
2022-11-12T03:39:41.412Z,15.73
2022-11-12T03:40:43.357Z,11.85
2022-11-12T03:41:45.271Z,21.52
2022-11-12T03:42:49.103Z,15.02
2022-11-12T03:43:51.300Z,15.45
2022-11-12T03:44:53.442Z,14.38
2022-11-12T03:45:55.612Z,14.30
2022-11-12T03:46:57.551Z,14.25
2022-11-12T03:47:59.587Z,12.00
2022-11-12T03:49:03.126Z,12.05
2022-11-12T03:50:06.782Z,14.00
2022-11-12T03:51:08.815Z,14.80
2022-11-12T03:52:10.739Z,17.10
2022-11-12T03:53:12.647Z,13.75
2022-11-12T03:54:14.380Z,14.30
2022-11-12T03:55:18.512Z,14.95
2022-11-12T03:56:20.419Z,13.77
2022-11-12T03:57:22.321Z,17.05
2022-11-12T03:58:24.466Z,16.35
2022-11-12T03:59:26.472Z,12.57
2022-11-12T04:00:30.061Z,10.45
2022-11-12T04:01:32.745Z,13.55
2022-11-12T04:02:34.812Z,17.85
2022-11-12T04:03:36.788Z,11.20
2022-11-12T04:04:57.414Z,13.52
2022-11-12T04:06:17.648Z,12.75
2022-11-12T04:07:37.992Z,14.32
2022-11-12T04:08:40.049Z,17.27
2022-11-12T04:09:41.924Z,10.10
2022-11-12T04:10:43.983Z,18.27
2022-11-12T04:11:45.846Z,13.40
2022-11-12T04:13:06.422Z,14.15
2022-11-12T04:14:08.352Z,16.83
2022-11-12T04:15:10.293Z,10.23
2022-11-12T04:16:33.321Z,11.48
2022-11-12T04:17:53.603Z,12.55
2022-11-12T04:19:16.458Z,14.63
2022-11-12T04:20:37.225Z,15.27
2022-11-12T04:21:56.096Z,15.52
2022-11-12T04:22:59.027Z,12.70
2022-11-12T04:24:00.785Z,15.13
2022-11-12T04:25:21.192Z,8.73
2022-11-12T04:26:25.905Z,13.88
2022-11-12T04:27:30.800Z,15.10
2022-11-12T04:28:32.557Z,13.40
2022-11-12T04:29:53.176Z,16.63
2022-11-12T04:30:55.082Z,14.13
2022-11-12T04:31:56.909Z,15.65
2022-11-12T04:32:58.808Z,16.25
2022-11-12T04:34:20.626Z,17.77
2022-11-12T04:35:24.261Z,15.35
2022-11-12T04:36:26.175Z,16.88
2022-11-12T04:37:44.820Z,16.67
2022-11-12T04:38:46.788Z,16.80
2022-11-12T04:39:48.699Z,12.68
2022-11-12T04:41:09.143Z,13.63
2022-11-12T04:42:29.852Z,15.30
2022-11-12T04:43:50.608Z,17.10
2022-11-12T04:44:58.024Z,11.25
2022-11-12T04:46:01.349Z,14.63
2022-11-12T04:47:03.251Z,14.15
2022-11-12T04:48:05.376Z,13.73
2022-11-12T04:49:07.252Z,14.63
2022-11-12T04:50:14.687Z,17.70
2022-11-12T04:51:35.405Z,15.18
2022-11-12T04:52:37.522Z,11.20
2022-11-12T04:53:39.413Z,13.13
2022-11-12T04:54:41.687Z,9.93
2022-11-12T04:55:43.928Z,12.63
2022-11-12T04:56:45.794Z,14.35
2022-11-12T04:57:47.699Z,13.57
2022-11-12T04:58:49.754Z,12.25
2022-11-12T04:59:51.879Z,15.60
2022-11-12T05:00:54.082Z,12.05
2022-11-12T05:01:56.083Z,15.63
2022-11-12T05:02:58.350Z,7.80
2022-11-12T05:04:00.291Z,14.73
2022-11-12T05:05:02.232Z,16.65
2022-11-12T05:06:26.033Z,13.65
2022-11-12T05:07:27.931Z,18.45
2022-11-12T05:08:29.810Z,16.10
2022-11-12T05:09:31.684Z,9.98
2022-11-12T05:10:33.848Z,13.15
2022-11-12T05:11:35.560Z,11.85
2022-11-12T05:12:37.615Z,16.17
2022-11-12T05:13:39.392Z,19.73
2022-11-12T05:14:41.343Z,22.80
2022-11-12T05:15:44.695Z,14.38
2022-11-12T05:16:46.588Z,16.05
2022-11-12T05:17:48.763Z,15.88
2022-11-12T05:18:50.897Z,15.73
2022-11-12T05:19:53.072Z,14.43
2022-11-12T05:20:54.978Z,12.30
2022-11-12T05:22:06.187Z,12.30
2022-11-12T05:24:22.398Z,10.20
2022-11-12T05:25:32.271Z,11.85
2022-11-12T05:26:34.388Z,11.50
2022-11-12T05:27:36.526Z,17.67
2022-11-12T05:28:38.773Z,13.32
2022-11-12T05:29:41.465Z,13.02
2022-11-12T05:30:43.265Z,8.18
2022-11-12T05:31:45.832Z,10.82
2022-11-12T05:32:48.049Z,18.75
2022-11-12T05:33:49.929Z,13.75
2022-11-12T05:34:51.928Z,13.90
2022-11-12T05:35:57.280Z,18.58
2022-11-12T05:36:59.374Z,14.00
2022-11-12T05:38:01.376Z,12.95
2022-11-12T05:39:04.224Z,11.90
2022-11-12T05:40:06.825Z,15.15
2022-11-12T05:41:08.848Z,15.73
2022-11-12T05:42:13.697Z,12.63
2022-11-12T05:43:16.188Z,13.38
2022-11-12T05:44:18.380Z,10.90
2022-11-12T05:45:20.250Z,14.18
2022-11-12T05:46:22.986Z,13.35
2022-11-12T05:47:24.908Z,11.80
2022-11-12T05:48:27.288Z,12.70
2022-11-12T05:49:30.016Z,11.93
2022-11-12T05:50:39.966Z,12.10
2022-11-12T05:51:53.999Z,12.18
2022-11-12T05:52:56.094Z,11.77
2022-11-12T05:53:58.168Z,12.30
2022-11-12T05:55:00.046Z,12.57
2022-11-12T05:56:06.556Z,13.02
2022-11-12T05:57:08.648Z,13.35
2022-11-12T05:58:10.624Z,13.52
2022-11-12T05:59:13.693Z,12.80
2022-11-12T06:00:15.997Z,13.07
2022-11-12T06:01:18.255Z,12.25
2022-11-12T06:02:20.320Z,15.60
2022-11-12T06:03:22.452Z,14.40
2022-11-12T06:04:24.748Z,12.10
2022-11-12T06:05:26.628Z,17.70
2022-11-12T06:06:28.515Z,9.57
2022-11-12T06:07:30.501Z,13.95
2022-11-12T06:08:32.393Z,10.50
2022-11-12T06:09:34.296Z,13.02
2022-11-12T06:10:36.336Z,11.15
2022-11-12T06:11:38.796Z,11.02
2022-11-12T06:12:41.036Z,17.63
2022-11-12T06:13:43.411Z,15.18
2022-11-12T06:14:45.858Z,9.60
2022-11-12T06:15:47.743Z,11.45
2022-11-12T06:16:49.813Z,14.15
2022-11-12T06:17:52.059Z,13.85
2022-11-12T06:18:54.159Z,10.82
2022-11-12T06:19:56.501Z,16.23
2022-11-12T06:21:24.750Z,15.30
2022-11-12T06:22:26.873Z,9.10
2022-11-12T06:23:29.004Z,12.50
2022-11-12T06:24:35.323Z,11.55
2022-11-12T06:25:37.878Z,8.30
2022-11-12T06:26:39.761Z,15.40
2022-11-12T06:27:41.976Z,11.45
2022-11-12T06:28:44.116Z,12.15
2022-11-12T06:29:46.288Z,12.10
2022-11-12T06:30:48.130Z,6.55
2022-11-12T06:31:50.038Z,16.67
2022-11-12T06:32:52.297Z,11.32
2022-11-12T06:33:54.311Z,13.05
2022-11-12T06:34:58.259Z,10.43
2022-11-12T06:36:05.602Z,15.23
2022-11-12T06:37:08.051Z,15.55
2022-11-12T06:38:09.972Z,13.38
2022-11-12T06:39:12.516Z,16.38
2022-11-12T06:40:14.783Z,17.80
2022-11-12T06:41:16.820Z,12.30
2022-11-12T06:42:18.734Z,13.93
2022-11-12T06:43:20.610Z,12.05
2022-11-12T06:44:22.836Z,14.05
2022-11-12T06:45:25.581Z,7.90
2022-11-12T06:46:27.527Z,13.45
2022-11-12T06:47:29.335Z,12.95
2022-11-12T06:48:31.555Z,11.15
2022-11-12T06:49:33.530Z,12.75
2022-11-12T06:50:35.486Z,15.10
2022-11-12T06:51:37.575Z,14.60
2022-11-12T06:52:39.484Z,10.75
2022-11-12T06:53:41.452Z,10.27
2022-11-12T06:54:43.506Z,11.13
2022-11-12T06:55:46.290Z,18.33
2022-11-12T06:56:48.470Z,9.75
2022-11-12T06:57:53.812Z,14.82
2022-11-12T06:58:55.696Z,9.38
2022-11-12T06:59:57.613Z,9.60
2022-11-12T07:01:11.837Z,11.35
2022-11-12T07:02:14.364Z,15.20
2022-11-12T07:03:16.346Z,13.68
2022-11-12T07:04:18.295Z,12.43
2022-11-12T07:05:20.252Z,16.17
2022-11-12T07:06:22.376Z,10.50
2022-11-12T07:07:24.325Z,12.85
2022-11-12T07:08:27.004Z,10.77
2022-11-12T07:09:29.363Z,11.55
2022-11-12T07:10:31.356Z,12.45
2022-11-12T07:11:33.617Z,9.88
2022-11-12T07:12:35.556Z,11.07
2022-11-12T07:13:38.019Z,9.80
2022-11-12T07:14:39.956Z,10.30
2022-11-12T07:15:42.163Z,8.02
2022-11-12T07:16:44.027Z,13.23
2022-11-12T07:17:46.744Z,14.10
2022-11-12T07:18:49.894Z,12.10
2022-11-12T07:19:52.017Z,10.98
2022-11-12T07:21:00.475Z,9.80
2022-11-12T07:22:02.375Z,12.35
2022-11-12T07:23:04.814Z,10.88
2022-11-12T07:24:07.057Z,11.45
2022-11-12T07:25:10.093Z,10.45
2022-11-12T07:26:27.641Z,9.43
2022-11-12T07:27:30.984Z,9.98
2022-11-12T07:28:33.538Z,10.95
2022-11-12T07:29:47.595Z,13.93
2022-11-12T07:31:02.847Z,14.52
2022-11-12T07:32:05.080Z,9.00
2022-11-12T07:33:07.079Z,14.50
2022-11-12T07:34:08.876Z,10.43
2022-11-12T07:35:10.870Z,11.15
2022-11-12T07:36:18.623Z,14.38
2022-11-12T07:37:20.562Z,10.60
2022-11-12T07:38:22.458Z,12.02
2022-11-12T07:39:24.402Z,10.73
2022-11-12T07:40:26.310Z,12.85
2022-11-12T07:41:28.540Z,8.57
2022-11-12T07:42:33.715Z,10.13
2022-11-12T07:43:37.170Z,10.95
2022-11-12T07:44:38.934Z,9.10
2022-11-12T07:45:41.047Z,8.70
2022-11-12T07:46:42.985Z,12.13
2022-11-12T07:47:44.888Z,9.48
2022-11-12T07:48:47.307Z,9.15
2022-11-12T07:49:49.091Z,12.32
2022-11-12T07:50:50.983Z,12.95
2022-11-12T07:51:52.870Z,11.07
2022-11-12T07:52:58.336Z,11.63
2022-11-12T07:54:00.410Z,10.70
2022-11-12T07:55:02.378Z,12.40
2022-11-12T07:56:04.970Z,12.10
2022-11-12T07:57:06.883Z,12.65
2022-11-12T07:58:08.837Z,10.95
2022-11-12T07:59:10.763Z,13.52
2022-11-12T08:00:13.160Z,13.82
2022-11-12T08:01:30.831Z,14.50
2022-11-12T08:02:33.131Z,12.23
2022-11-12T08:03:35.235Z,12.75
2022-11-12T08:04:37.374Z,10.45
2022-11-12T08:05:41.759Z,14.63
2022-11-12T08:06:43.677Z,15.98
2022-11-12T08:07:46.030Z,13.80
2022-11-12T08:08:48.171Z,12.90
2022-11-12T08:09:50.047Z,12.68
2022-11-12T08:10:58.179Z,10.30
2022-11-12T08:12:00.192Z,9.55
2022-11-12T08:13:02.079Z,10.27
2022-11-12T08:14:04.566Z,10.35
2022-11-12T08:15:06.749Z,9.75
2022-11-12T08:16:09.192Z,11.38
2022-11-12T08:17:11.473Z,11.95
2022-11-12T08:18:14.040Z,13.73
2022-11-12T08:19:16.007Z,16.13
2022-11-12T08:20:18.040Z,9.40
2022-11-12T08:21:19.990Z,10.45
2022-11-12T08:22:21.950Z,10.63
2022-11-12T08:23:23.822Z,7.93
2022-11-12T08:24:25.771Z,14.60
2022-11-12T08:25:27.728Z,10.65
2022-11-12T08:26:29.441Z,11.07
2022-11-12T08:27:31.197Z,15.13
2022-11-12T08:28:34.669Z,7.75
2022-11-12T08:29:36.463Z,13.63
2022-11-12T08:30:38.364Z,12.38
2022-11-12T08:31:40.338Z,11.85
2022-11-12T08:32:42.248Z,12.60
2022-11-12T08:33:45.003Z,13.55
2022-11-12T08:34:46.850Z,12.10
2022-11-12T08:35:50.082Z,9.63
2022-11-12T08:36:52.060Z,9.38
2022-11-12T08:38:01.222Z,10.82
2022-11-12T08:39:03.196Z,11.82
2022-11-12T08:40:08.028Z,12.75
2022-11-12T08:41:12.795Z,7.63
2022-11-12T08:42:14.976Z,11.95
2022-11-12T08:43:17.146Z,8.85
2022-11-12T08:44:19.075Z,9.13
2022-11-12T08:45:21.602Z,13.38
2022-11-12T08:46:25.386Z,12.07
2022-11-12T08:47:27.360Z,6.85
2022-11-12T08:48:30.641Z,10.50
2022-11-12T08:49:33.058Z,8.40
2022-11-12T08:50:36.385Z,10.85
2022-11-12T08:51:38.699Z,8.95
2022-11-12T08:52:41.829Z,6.68
2022-11-12T08:53:43.780Z,12.77
2022-11-12T08:54:46.792Z,11.15
2022-11-12T08:55:49.840Z,12.52
2022-11-12T08:56:51.756Z,11.27
2022-11-12T08:57:53.647Z,9.30
2022-11-12T08:59:06.240Z,12.75
2022-11-12T09:00:14.077Z,9.85
2022-11-12T09:01:16.144Z,8.18
2022-11-12T09:02:18.082Z,10.68
2022-11-12T09:03:22.083Z,13.90
2022-11-12T09:04:24.297Z,13.15
2022-11-12T09:05:26.353Z,10.88
2022-11-12T09:06:28.277Z,13.20
2022-11-12T09:07:48.845Z,10.23
2022-11-12T09:08:52.101Z,9.50
2022-11-12T09:09:56.938Z,13.13
2022-11-12T09:12:19.807Z,13.75
2022-11-12T09:13:21.811Z,7.57
2022-11-12T09:14:23.771Z,10.40
2022-11-12T09:15:41.710Z,8.40
2022-11-12T09:16:44.485Z,8.75
2022-11-12T09:17:46.509Z,11.48
2022-11-12T09:18:48.771Z,8.32
2022-11-12T09:19:55.425Z,7.47
2022-11-12T09:21:15.198Z,9.50
2022-11-12T09:22:17.626Z,6.97
2022-11-12T09:23:19.575Z,9.50
2022-11-12T09:24:21.663Z,13.52
2022-11-12T09:25:23.414Z,13.57
2022-11-12T09:26:25.568Z,14.18
2022-11-12T09:27:28.080Z,7.28
2022-11-12T09:28:29.927Z,8.93
2022-11-12T09:29:34.684Z,12.07
2022-11-12T09:30:37.758Z,9.80
2022-11-12T09:31:39.999Z,7.50
2022-11-12T09:32:41.761Z,8.68
2022-11-12T09:33:43.693Z,7.70
2022-11-12T09:34:46.872Z,11.88
2022-11-12T09:35:49.703Z,11.43
2022-11-12T09:36:51.745Z,17.58
2022-11-12T09:37:53.446Z,11.52
2022-11-12T09:38:55.327Z,14.27
2022-11-12T09:39:57.293Z,9.23
2022-11-12T09:41:16.807Z,10.05
2022-11-12T09:42:21.790Z,11.65
2022-11-12T09:43:52.261Z,11.75
2022-11-12T09:45:21.259Z,12.02
2022-11-12T09:46:38.194Z,11.45
2022-11-12T09:47:47.775Z,9.05
2022-11-12T09:48:56.553Z,12.90
2022-11-12T09:50:27.015Z,12.57
2022-11-12T09:51:33.658Z,9.88
2022-11-12T09:52:37.511Z,12.10
2022-11-12T09:53:49.584Z,14.80
2022-11-12T09:55:02.448Z,13.13
2022-11-12T09:56:10.166Z,9.32
2022-11-12T09:57:13.297Z,14.45
2022-11-12T09:58:18.133Z,11.57
2022-11-12T09:59:21.289Z,11.98
2022-11-12T10:00:24.135Z,13.23
2022-11-12T10:01:48.317Z,12.13
2022-11-12T10:03:01.434Z,8.98
2022-11-12T10:04:39.833Z,17.83
2022-11-12T10:05:57.500Z,11.35
2022-11-12T10:07:25.444Z,10.00
2022-11-12T10:08:45.410Z,10.38
2022-11-12T10:10:08.575Z,10.32
2022-11-12T10:11:32.227Z,12.90
2022-11-12T10:13:12.316Z,9.95
2022-11-12T10:16:03.424Z,10.15
2022-11-12T10:17:03.612Z,7.47
2022-11-12T10:18:18.572Z,8.27
2022-11-12T10:20:00.793Z,11.77
2022-11-12T10:21:35.071Z,8.65
2022-11-12T10:22:56.535Z,14.02
2022-11-12T10:24:01.060Z,11.02
2022-11-12T10:25:16.958Z,11.13
2022-11-12T10:26:28.183Z,14.75
2022-11-12T10:27:39.808Z,10.43
2022-11-12T10:30:46.599Z,7.60
2022-11-12T10:31:48.689Z,9.18
2022-11-12T10:32:52.115Z,14.27
2022-11-12T10:34:22.599Z,7.57
2022-11-12T10:35:27.082Z,12.32
2022-11-12T10:36:36.589Z,10.73
2022-11-12T10:37:47.194Z,10.27
2022-11-12T10:38:56.330Z,10.02
2022-11-12T10:40:21.900Z,9.57
2022-11-12T10:41:33.538Z,6.32
2022-11-12T10:43:22.097Z,6.95
2022-11-12T10:44:29.878Z,8.55
2022-11-12T10:45:34.288Z,9.73
2022-11-12T10:46:39.513Z,15.25
2022-11-12T10:47:44.684Z,8.23
2022-11-12T10:48:57.202Z,7.38
2022-11-12T10:50:15.810Z,10.40
2022-11-12T10:51:37.055Z,6.40
2022-11-12T10:52:42.172Z,9.98
2022-11-12T10:53:44.512Z,9.32
2022-11-12T10:54:52.358Z,9.68
2022-11-12T10:56:01.427Z,8.20
2022-11-12T10:57:25.736Z,11.65
2022-11-12T10:58:31.966Z,11.88
2022-11-12T10:59:38.146Z,8.32
2022-11-12T11:02:18.422Z,6.25
2022-11-12T11:03:29.045Z,11.75
2022-11-12T11:04:38.423Z,10.13
2022-11-12T11:05:52.133Z,8.77
2022-11-12T11:07:20.751Z,10.43
2022-11-12T11:08:55.898Z,12.45
2022-11-12T11:10:41.904Z,9.50
2022-11-12T11:11:59.417Z,6.78
2022-11-12T11:13:29.348Z,10.48
2022-11-12T11:14:40.106Z,11.02
2022-11-12T11:16:08.394Z,8.77
2022-11-12T11:17:23.653Z,9.25
2022-11-12T11:18:32.281Z,7.05
2022-11-12T11:19:43.786Z,9.82
2022-11-12T11:20:52.893Z,9.10
2022-11-12T11:22:13.401Z,14.13
2022-11-12T11:23:56.658Z,8.88
2022-11-12T11:25:18.079Z,10.20
2022-11-12T11:32:33.322Z,10.85
2022-11-12T11:36:43.390Z,7.95
2022-11-12T11:38:09.126Z,10.60
2022-11-12T11:39:33.801Z,8.75
2022-11-12T11:40:47.318Z,12.93
2022-11-12T11:42:19.670Z,8.10
2022-11-12T11:52:36.915Z,9.55
2022-11-12T11:54:13.020Z,8.15
2022-11-12T12:02:24.905Z,10.23
2022-11-12T12:04:05.634Z,10.02
2022-11-12T12:05:36.515Z,9.98
2022-11-12T12:07:16.117Z,10.35
2022-11-12T12:09:05.735Z,9.80
2022-11-12T12:10:53.429Z,9.75
2022-11-12T12:11:59.542Z,12.13
2022-11-12T12:13:11.044Z,10.15
2022-11-12T12:14:41.035Z,13.10
2022-11-12T12:15:50.175Z,11.77
2022-11-12T12:17:31.616Z,11.52
2022-11-12T12:18:52.502Z,10.05
2022-11-12T12:20:30.881Z,9.15
2022-11-12T12:21:36.847Z,12.25
2022-11-12T12:22:53.007Z,10.25
2022-11-12T12:24:15.386Z,9.40
2022-11-12T12:25:47.365Z,13.88
2022-11-12T12:27:29.309Z,11.10
2022-11-12T12:29:21.111Z,8.63
2022-11-12T12:30:39.419Z,10.77
2022-11-12T12:32:01.359Z,10.35
2022-11-12T12:33:49.021Z,12.18
2022-11-12T12:35:12.830Z,10.45
2022-11-12T12:36:20.152Z,15.80
2022-11-12T12:37:40.481Z,13.38
2022-11-12T12:39:11.158Z,9.20
2022-11-12T12:40:22.426Z,10.68
2022-11-12T12:41:30.012Z,13.27
2022-11-12T12:42:42.416Z,8.65
2022-11-12T12:43:54.500Z,10.40
2022-11-12T12:45:04.750Z,14.18
2022-11-12T12:46:09.787Z,13.57
2022-11-12T12:47:14.226Z,11.38
2022-11-12T12:48:38.272Z,14.18
2022-11-12T12:49:43.010Z,12.43
2022-11-12T12:50:49.933Z,8.93
2022-11-12T12:51:55.971Z,12.98
2022-11-12T12:53:29.700Z,8.63
2022-11-12T12:54:40.638Z,13.30
2022-11-12T12:55:48.402Z,9.30
2022-11-12T12:57:27.352Z,11.23
2022-11-12T12:58:46.719Z,11.77
2022-11-12T12:59:51.415Z,13.35
2022-11-12T13:01:04.752Z,15.40
2022-11-12T13:02:21.802Z,13.15
2022-11-12T13:03:49.257Z,10.45
2022-11-12T13:05:01.870Z,13.77
2022-11-12T13:06:09.380Z,14.10
2022-11-12T13:07:11.807Z,11.32
2022-11-12T13:08:21.118Z,15.57
2022-11-12T13:09:34.979Z,17.45
2022-11-12T13:10:37.141Z,15.10
2022-11-12T13:12:07.383Z,12.07
2022-11-12T13:13:18.632Z,13.55
2022-11-12T13:14:35.882Z,13.05
2022-11-12T13:15:46.889Z,14.45
2022-11-12T13:16:51.682Z,13.57
2022-11-12T13:17:53.882Z,13.38
2022-11-12T13:18:55.746Z,12.85
2022-11-12T13:19:58.128Z,12.85
2022-11-12T13:21:16.203Z,9.50
2022-11-12T13:22:19.326Z,12.75
2022-11-12T13:24:06.952Z,14.68
2022-11-12T13:25:12.219Z,16.92
2022-11-12T13:26:46.813Z,12.90
2022-11-12T13:27:49.152Z,12.93
2022-11-12T13:29:21.763Z,11.10
2022-11-12T13:30:26.287Z,15.32
2022-11-12T13:31:30.486Z,17.13
2022-11-12T13:32:43.151Z,11.77
2022-11-12T13:33:45.446Z,14.63
2022-11-12T13:34:47.924Z,17.08
2022-11-12T13:35:49.930Z,18.85
2022-11-12T13:37:02.718Z,11.00
2022-11-12T13:38:12.302Z,11.23
2022-11-12T13:39:16.897Z,13.50
2022-11-12T13:40:30.711Z,15.98
2022-11-12T13:41:52.627Z,14.60
2022-11-12T13:43:05.011Z,13.60
2022-11-12T13:44:14.394Z,15.43
2022-11-12T13:45:22.220Z,14.18
2022-11-12T13:46:33.682Z,14.90
2022-11-12T13:47:38.354Z,17.40
2022-11-12T13:48:45.381Z,13.00
2022-11-12T13:49:48.596Z,12.18
2022-11-12T13:51:13.271Z,15.27
2022-11-12T13:52:16.391Z,15.38
2022-11-12T13:53:24.038Z,18.15
2022-11-12T13:54:35.642Z,18.00
2022-11-12T13:55:47.607Z,18.80
2022-11-12T13:56:49.700Z,16.80
2022-11-12T13:57:54.326Z,20.30
2022-11-12T13:59:08.493Z,14.93
2022-11-12T14:00:31.199Z,15.65
2022-11-12T14:01:35.042Z,18.55
2022-11-12T14:02:44.503Z,22.77
2022-11-12T14:03:52.208Z,18.52
2022-11-12T14:04:54.739Z,19.15
2022-11-12T14:06:06.385Z,14.70
2022-11-12T14:07:27.289Z,20.83
2022-11-12T14:08:41.729Z,17.35
2022-11-12T14:09:54.689Z,16.80
2022-11-12T14:10:56.734Z,16.08
2022-11-12T14:12:11.399Z,16.60
2022-11-12T14:13:16.397Z,20.63
2022-11-12T14:14:58.393Z,17.88
2022-11-12T14:16:22.236Z,17.65
2022-11-12T14:17:38.047Z,15.32
2022-11-12T14:18:54.320Z,23.55
2022-11-12T14:20:07.390Z,21.35
2022-11-12T14:21:16.972Z,17.60
2022-11-12T14:22:21.743Z,28.75
2022-11-12T14:23:25.534Z,21.17
2022-11-12T14:24:28.363Z,18.67
2022-11-12T14:25:31.411Z,17.92
2022-11-12T14:26:35.178Z,23.08
2022-11-12T14:27:37.530Z,26.00
2022-11-12T14:28:40.303Z,21.08
2022-11-12T14:29:44.158Z,24.35
2022-11-12T14:30:46.180Z,27.75
2022-11-12T14:32:02.943Z,26.17
2022-11-12T14:33:11.543Z,26.10
2022-11-12T14:34:27.731Z,25.55
2022-11-12T14:35:35.869Z,17.70
2022-11-12T14:38:41.677Z,21.75
2022-11-12T14:40:48.367Z,18.33
2022-11-12T14:42:43.368Z,20.55
2022-11-12T14:44:07.428Z,21.10
2022-11-12T14:46:25.057Z,18.40
2022-11-12T14:47:30.020Z,22.95
2022-11-12T14:49:06.531Z,18.20
2022-11-12T14:54:36.258Z,17.98
2022-11-12T14:55:41.486Z,26.42
2022-11-12T15:02:26.820Z,24.58
2022-11-12T15:08:00.334Z,23.75
2022-11-12T15:09:29.565Z,23.95
2022-11-12T15:10:38.527Z,24.35
2022-11-12T15:11:48.094Z,22.20
2022-11-12T15:16:36.445Z,19.52
2022-11-12T15:20:16.430Z,22.50
2022-11-12T15:21:42.011Z,25.17
2022-11-12T15:22:51.635Z,17.73
2022-11-12T15:24:19.608Z,17.23
2022-11-12T15:25:30.001Z,13.68
2022-11-12T15:30:42.503Z,17.47
2022-11-12T15:32:43.260Z,18.23
2022-11-12T15:33:51.844Z,23.13
2022-11-12T15:34:54.517Z,15.95
2022-11-12T15:36:20.099Z,23.05
2022-11-12T15:37:29.039Z,24.65